Air Navigation Services of Czech Republic
Airport: LKKB Updated:  29.04.2017 07:06:12  UTC
 METAR LKKB 29.04. 07:00 ...
METAR LKKB 290700Z 22009KT 9000 NSC 06/04 Q1017 NOSIG =
 TAF LKKB 29.04. 05:00 ...
TAF LKKB 290500Z 2906/3006 23008KT 9999 SCT040      TEMPO 2906/2908 6000 NSC      TEMPO 2909/2918 24012KT SHRA FEW030TCU BKN035      PROB30 TEMPO 2913/2918 30016KT 5000 SHRA BKN015TCU      BECMG 2918/2920 VRB02KT CAVOK=